createdAt,value
2023-05-18T00:01:49.301Z,49.80
2023-05-18T00:06:57.010Z,49.41
2023-05-18T00:11:59.426Z,50.10
2023-05-18T00:17:03.576Z,50.79
2023-05-18T00:22:07.711Z,50.85
2023-05-18T00:27:09.154Z,50.67
2023-05-18T00:32:10.685Z,50.56
2023-05-18T00:37:12.048Z,50.57
2023-05-18T00:42:13.399Z,50.41
2023-05-18T00:47:15.711Z,49.74
2023-05-18T00:52:17.168Z,50.61
2023-05-18T00:57:19.179Z,50.42
2023-05-18T01:02:21.123Z,50.47
2023-05-18T01:07:26.487Z,50.77
2023-05-18T01:12:37.887Z,50.52
2023-05-18T01:18:00.775Z,50.63
2023-05-18T01:23:48.523Z,50.48
2023-05-18T01:28:51.214Z,50.64
2023-05-18T01:33:52.850Z,50.19
2023-05-18T01:38:55.994Z,50.88
2023-05-18T01:44:05.416Z,51.15
2023-05-18T01:49:43.102Z,51.34
2023-05-18T01:54:48.116Z,51.79
2023-05-18T01:59:51.415Z,51.65
2023-05-18T02:04:52.970Z,51.17
2023-05-18T02:09:54.334Z,51.60
2023-05-18T02:14:58.233Z,51.65
2023-05-18T02:20:00.007Z,52.55
2023-05-18T02:25:01.663Z,52.27
2023-05-18T02:30:05.755Z,52.03
2023-05-18T02:35:08.516Z,52.16
2023-05-18T02:40:11.213Z,52.63
2023-05-18T02:45:12.609Z,52.41
2023-05-18T02:50:14.207Z,52.40
2023-05-18T02:55:16.978Z,52.42
2023-05-18T03:00:19.543Z,52.57
2023-05-18T03:05:23.784Z,53.00
2023-05-18T03:10:25.393Z,53.25
2023-05-18T03:15:26.953Z,53.62
2023-05-18T03:20:29.877Z,53.89
2023-05-18T03:25:32.768Z,53.11
2023-05-18T03:30:34.377Z,54.47
2023-05-18T03:35:35.845Z,54.32
2023-05-18T03:40:37.337Z,54.39
2023-05-18T03:45:38.709Z,54.50
2023-05-18T03:50:40.082Z,54.62
2023-05-18T03:55:41.784Z,54.29
2023-05-18T04:00:43.156Z,54.15
2023-05-18T04:05:44.764Z,54.59
2023-05-18T04:10:46.474Z,54.78
2023-05-18T04:15:48.779Z,54.35
2023-05-18T04:20:50.534Z,54.56
2023-05-18T04:25:51.999Z,54.88
2023-05-18T04:30:54.129Z,55.23
2023-05-18T04:35:55.550Z,54.62
2023-05-18T04:40:57.016Z,54.84
2023-05-18T04:45:58.662Z,55.04
2023-05-18T04:51:00.027Z,55.37
2023-05-18T04:56:01.532Z,55.67
2023-05-18T05:01:03.110Z,55.75
2023-05-18T05:06:04.731Z,55.40
2023-05-18T05:11:06.109Z,54.68
2023-05-18T05:16:07.665Z,54.97
2023-05-18T05:21:09.544Z,54.77
2023-05-18T05:26:11.104Z,54.77
2023-05-18T05:31:12.616Z,54.83
2023-05-18T05:36:14.048Z,54.76
2023-05-18T05:41:15.514Z,54.41
2023-05-18T05:46:17.307Z,54.76
2023-05-18T05:51:18.683Z,54.19
2023-05-18T05:56:20.191Z,54.23
2023-05-18T06:01:22.030Z,53.92
2023-05-18T06:06:23.438Z,53.56
2023-05-18T06:11:25.503Z,53.63
2023-05-18T06:16:26.955Z,53.74
2023-05-18T06:21:28.473Z,53.23
2023-05-18T06:26:29.943Z,52.97
2023-05-18T06:31:31.415Z,51.97
2023-05-18T06:36:32.997Z,51.98
2023-05-18T06:41:34.552Z,51.82
2023-05-18T06:46:36.299Z,51.42
2023-05-18T06:51:37.808Z,51.00
2023-05-18T06:56:39.175Z,50.57
2023-05-18T07:01:41.260Z,49.89
2023-05-18T07:06:42.898Z,49.57
2023-05-18T07:11:45.418Z,49.33
2023-05-18T07:16:47.685Z,48.71
2023-05-18T07:21:49.132Z,48.83
2023-05-18T07:26:50.537Z,49.21
2023-05-18T07:31:52.053Z,48.91
2023-05-18T07:36:53.763Z,48.36
2023-05-18T07:41:56.103Z,50.15
2023-05-18T07:46:57.779Z,50.52
2023-05-18T07:52:00.376Z,48.28
2023-05-18T07:57:01.760Z,48.55
2023-05-18T08:02:03.315Z,47.10
2023-05-18T08:07:05.031Z,47.45
2023-05-18T08:12:06.791Z,46.99
2023-05-18T08:17:08.338Z,47.26
2023-05-18T08:22:09.846Z,47.99
2023-05-18T08:27:11.298Z,46.09
2023-05-18T08:32:12.805Z,46.73
2023-05-18T08:37:14.653Z,45.22
2023-05-18T08:42:46.101Z,45.13
2023-05-18T08:47:56.095Z,44.99
2023-05-18T08:53:01.719Z,44.86
2023-05-18T08:58:04.747Z,44.25
2023-05-18T09:03:06.483Z,44.19
2023-05-18T09:08:10.006Z,43.75
2023-05-18T09:13:12.689Z,44.00
2023-05-18T09:18:14.143Z,43.26
2023-05-18T09:23:16.436Z,43.07
2023-05-18T09:28:33.075Z,42.60
2023-05-18T09:33:39.468Z,40.71
2023-05-18T09:38:45.550Z,41.31
2023-05-18T09:43:53.490Z,39.36
2023-05-18T09:48:55.288Z,40.27
2023-05-18T09:53:58.195Z,40.28
2023-05-18T09:59:08.411Z,39.19
2023-05-18T10:04:09.998Z,37.96
2023-05-18T10:09:16.578Z,36.00
2023-05-18T10:14:17.939Z,35.04
2023-05-18T10:19:20.088Z,35.07
2023-05-18T10:24:22.358Z,34.52
2023-05-18T10:29:24.122Z,32.40
2023-05-18T10:34:25.640Z,32.69
2023-05-18T10:39:28.276Z,32.02
2023-05-18T10:44:31.267Z,31.27
2023-05-18T10:49:33.834Z,32.96
2023-05-18T10:54:36.404Z,32.40
2023-05-18T10:59:42.869Z,32.69
2023-05-18T11:04:46.450Z,32.90
2023-05-18T11:09:48.645Z,31.80
2023-05-18T11:14:52.417Z,31.42
2023-05-18T11:20:09.447Z,31.70
2023-05-18T11:25:24.295Z,30.07
2023-05-18T11:30:28.793Z,30.04
2023-05-18T11:35:30.296Z,31.62
2023-05-18T11:40:49.104Z,30.81
2023-05-18T11:45:59.403Z,30.71
2023-05-18T11:51:01.170Z,31.40
2023-05-18T11:56:02.744Z,30.82
2023-05-18T12:01:04.694Z,31.27
2023-05-18T12:06:07.221Z,30.91
2023-05-18T12:11:08.788Z,30.20
2023-05-18T12:16:11.341Z,30.72
2023-05-18T12:21:12.749Z,30.03
2023-05-18T12:26:14.471Z,31.05
2023-05-18T12:31:16.178Z,30.77
2023-05-18T12:36:17.541Z,30.58
2023-05-18T12:41:26.522Z,30.76
2023-05-18T12:46:27.959Z,31.40
2023-05-18T12:51:36.992Z,30.03
2023-05-18T12:57:02.125Z,30.56
2023-05-18T13:02:04.219Z,29.36
2023-05-18T13:07:05.716Z,29.86
2023-05-18T13:12:08.198Z,31.55
2023-05-18T13:17:09.686Z,31.32
2023-05-18T13:22:11.151Z,31.16
2023-05-18T13:27:12.469Z,30.64
2023-05-18T13:32:13.868Z,31.06
2023-05-18T13:37:15.710Z,31.09
2023-05-18T13:42:21.039Z,31.19
2023-05-18T13:47:22.587Z,31.59
2023-05-18T13:52:23.973Z,31.40
2023-05-18T13:57:26.226Z,31.02
2023-05-18T14:02:27.771Z,31.16
2023-05-18T14:07:30.101Z,31.89
2023-05-18T14:12:32.271Z,31.77
2023-05-18T14:17:34.590Z,31.59
2023-05-18T14:22:36.162Z,31.88
2023-05-18T14:27:37.643Z,31.91
2023-05-18T14:32:39.122Z,32.17
2023-05-18T14:37:40.691Z,31.97
2023-05-18T14:42:42.101Z,31.67
2023-05-18T14:47:43.490Z,32.39
2023-05-18T14:52:44.921Z,32.46
2023-05-18T14:57:46.363Z,32.87
2023-05-18T15:02:47.852Z,32.74
2023-05-18T15:07:49.383Z,32.80
2023-05-18T15:12:50.886Z,33.43
2023-05-18T15:17:52.323Z,33.11
2023-05-18T15:22:53.705Z,33.12
2023-05-18T15:27:55.069Z,33.42
2023-05-18T15:32:57.626Z,33.69
2023-05-18T15:37:59.071Z,34.40
2023-05-18T15:43:00.989Z,34.19
2023-05-18T15:48:02.421Z,34.27
2023-05-18T15:53:04.025Z,34.37
2023-05-18T15:58:05.467Z,34.87
2023-05-18T16:03:07.011Z,35.13
2023-05-18T16:08:08.374Z,35.44
2023-05-18T16:13:09.719Z,35.66
2023-05-18T16:18:11.301Z,35.25
2023-05-18T16:23:12.729Z,35.52
2023-05-18T16:28:14.337Z,35.91
2023-05-18T16:33:16.826Z,36.07
2023-05-18T16:38:18.477Z,36.08
2023-05-18T16:43:19.863Z,36.25
2023-05-18T16:48:21.351Z,36.24
2023-05-18T16:53:22.800Z,36.59
2023-05-18T16:58:24.191Z,36.80
2023-05-18T17:03:27.539Z,36.66
2023-05-18T17:08:29.055Z,36.84
2023-05-18T17:18:49.430Z,37.00
2023-05-18T17:23:50.818Z,37.17
2023-05-18T17:28:52.911Z,36.93
2023-05-18T17:33:54.549Z,37.17
2023-05-18T17:38:56.488Z,37.31
2023-05-18T17:43:59.941Z,37.32
2023-05-18T17:49:02.222Z,37.22
2023-05-18T17:54:04.205Z,37.46
2023-05-18T17:59:05.843Z,37.75
2023-05-18T18:04:07.309Z,37.69
2023-05-18T18:09:08.828Z,37.51
2023-05-18T18:14:11.421Z,37.65
2023-05-18T18:19:13.647Z,38.10
2023-05-18T18:24:16.374Z,37.87
2023-05-18T18:29:17.864Z,38.04
2023-05-18T18:34:19.304Z,38.59
2023-05-18T18:39:21.061Z,38.66
2023-05-18T18:44:22.504Z,38.96
2023-05-18T18:49:23.883Z,38.93
2023-05-18T18:54:26.256Z,39.28
2023-05-18T18:59:27.700Z,39.49
2023-05-18T19:04:29.548Z,39.87
2023-05-18T19:09:34.638Z,40.04
2023-05-18T19:14:35.977Z,40.18
2023-05-18T19:19:37.845Z,40.43
2023-05-18T19:24:39.986Z,40.52
2023-05-18T19:29:41.419Z,40.36
2023-05-18T19:34:42.853Z,40.74
2023-05-18T19:39:44.249Z,40.86
2023-05-18T19:44:45.711Z,41.17
2023-05-18T19:49:47.761Z,40.93
2023-05-18T19:54:49.211Z,41.35
2023-05-18T19:59:50.653Z,41.22
2023-05-18T20:04:53.462Z,41.53
2023-05-18T20:09:54.980Z,41.46
2023-05-18T20:14:56.587Z,41.77
2023-05-18T20:19:58.011Z,41.38
2023-05-18T20:25:01.137Z,41.78
2023-05-18T20:30:02.548Z,41.79
2023-05-18T20:35:04.112Z,42.19
2023-05-18T20:40:09.213Z,42.06
2023-05-18T20:45:10.881Z,42.16
2023-05-18T20:50:13.473Z,42.35
2023-05-18T20:55:15.026Z,42.61
2023-05-18T21:00:18.417Z,42.71
2023-05-18T21:05:19.996Z,42.77
2023-05-18T21:10:21.564Z,43.00
2023-05-18T21:15:22.970Z,42.96
2023-05-18T21:20:24.316Z,43.07
2023-05-18T21:25:25.816Z,43.88
2023-05-18T21:30:27.169Z,44.06
2023-05-18T21:35:28.540Z,44.21
2023-05-18T21:40:30.143Z,44.10
2023-05-18T21:45:32.049Z,44.10
2023-05-18T21:50:36.399Z,44.35
2023-05-18T21:55:38.137Z,44.90
2023-05-18T22:00:39.574Z,45.02
2023-05-18T22:05:44.603Z,44.84
2023-05-18T22:10:46.443Z,45.08
2023-05-18T22:15:47.896Z,45.49
2023-05-18T22:20:49.958Z,45.51
2023-05-18T22:25:51.414Z,45.55
2023-05-18T22:30:52.848Z,45.59
2023-05-18T22:35:54.388Z,45.49
2023-05-18T22:40:56.057Z,45.68
2023-05-18T22:45:57.566Z,45.77
2023-05-18T22:51:00.708Z,45.78
2023-05-18T22:56:02.280Z,46.15
2023-05-18T23:01:03.624Z,46.18
2023-05-18T23:06:06.674Z,46.38
2023-05-18T23:11:07.970Z,46.30
2023-05-18T23:16:10.297Z,46.57
2023-05-18T23:21:11.814Z,46.65
2023-05-18T23:26:13.163Z,46.80
2023-05-18T23:31:14.558Z,47.25
2023-05-18T23:36:20.014Z,46.76
2023-05-18T23:41:21.853Z,46.85
2023-05-18T23:46:24.069Z,46.96
2023-05-18T23:51:29.837Z,47.14
2023-05-18T23:56:33.119Z,47.67
